sensor_id;sensor_type;location;lat;lon;timestamp;P1;durP1;ratioP1;P2;durP2;ratioP2
4466;SDS011;2246;42.664;23.278;2022-07-06T00:01:38;23.08;;;12.00;;
4466;SDS011;2246;42.664;23.278;2022-07-06T00:04:04;13.50;;;11.00;;
4466;SDS011;2246;42.664;23.278;2022-07-06T00:06:30;18.35;;;13.18;;
4466;SDS011;2246;42.664;23.278;2022-07-06T00:08:57;13.95;;;10.93;;
4466;SDS011;2246;42.664;23.278;2022-07-06T00:11:23;16.92;;;12.82;;
4466;SDS011;2246;42.664;23.278;2022-07-06T00:13:50;24.20;;;12.80;;
4466;SDS011;2246;42.664;23.278;2022-07-06T00:16:16;17.77;;;12.77;;
4466;SDS011;2246;42.664;23.278;2022-07-06T00:18:42;21.15;;;14.10;;
4466;SDS011;2246;42.664;23.278;2022-07-06T00:21:08;16.98;;;13.65;;
4466;SDS011;2246;42.664;23.278;2022-07-06T00:23:34;15.32;;;13.00;;
4466;SDS011;2246;42.664;23.278;2022-07-06T00:26:00;17.38;;;12.60;;
4466;SDS011;2246;42.664;23.278;2022-07-06T00:28:26;17.13;;;13.27;;
4466;SDS011;2246;42.664;23.278;2022-07-06T00:30:53;18.65;;;12.45;;
4466;SDS011;2246;42.664;23.278;2022-07-06T00:33:19;18.90;;;11.73;;
4466;SDS011;2246;42.664;23.278;2022-07-06T00:35:45;28.20;;;12.20;;
4466;SDS011;2246;42.664;23.278;2022-07-06T00:38:11;18.20;;;11.77;;
4466;SDS011;2246;42.664;23.278;2022-07-06T00:40:37;15.85;;;10.82;;
4466;SDS011;2246;42.664;23.278;2022-07-06T00:43:04;16.58;;;10.90;;
4466;SDS011;2246;42.664;23.278;2022-07-06T00:45:30;15.48;;;10.48;;
4466;SDS011;2246;42.664;23.278;2022-07-06T00:47:56;15.35;;;11.25;;
4466;SDS011;2246;42.664;23.278;2022-07-06T00:50:22;19.30;;;11.55;;
4466;SDS011;2246;42.664;23.278;2022-07-06T00:52:49;16.20;;;12.52;;
4466;SDS011;2246;42.664;23.278;2022-07-06T00:55:16;17.52;;;12.82;;
4466;SDS011;2246;42.664;23.278;2022-07-06T00:57:43;20.52;;;14.40;;
4466;SDS011;2246;42.664;23.278;2022-07-06T01:00:11;22.05;;;14.95;;
4466;SDS011;2246;42.664;23.278;2022-07-06T01:05:04;20.85;;;14.13;;
4466;SDS011;2246;42.664;23.278;2022-07-06T01:07:30;21.48;;;13.98;;
4466;SDS011;2246;42.664;23.278;2022-07-06T01:09:56;21.08;;;14.13;;
4466;SDS011;2246;42.664;23.278;2022-07-06T01:12:23;17.77;;;13.32;;
4466;SDS011;2246;42.664;23.278;2022-07-06T01:14:49;23.48;;;14.32;;
4466;SDS011;2246;42.664;23.278;2022-07-06T01:17:15;23.42;;;14.98;;
4466;SDS011;2246;42.664;23.278;2022-07-06T01:19:42;21.02;;;14.20;;
4466;SDS011;2246;42.664;23.278;2022-07-06T01:22:08;22.35;;;15.27;;
4466;SDS011;2246;42.664;23.278;2022-07-06T01:24:35;20.00;;;14.63;;
4466;SDS011;2246;42.664;23.278;2022-07-06T01:27:01;21.15;;;14.48;;
4466;SDS011;2246;42.664;23.278;2022-07-06T01:29:28;21.20;;;15.52;;
4466;SDS011;2246;42.664;23.278;2022-07-06T01:31:54;22.42;;;15.15;;
4466;SDS011;2246;42.664;23.278;2022-07-06T01:34:20;28.83;;;16.88;;
4466;SDS011;2246;42.664;23.278;2022-07-06T01:36:47;22.67;;;16.17;;
4466;SDS011;2246;42.664;23.278;2022-07-06T01:39:13;23.73;;;16.35;;
4466;SDS011;2246;42.664;23.278;2022-07-06T01:41:39;20.27;;;15.40;;
4466;SDS011;2246;42.664;23.278;2022-07-06T01:44:05;21.50;;;15.23;;
4466;SDS011;2246;42.664;23.278;2022-07-06T01:46:32;18.23;;;14.07;;
4466;SDS011;2246;42.664;23.278;2022-07-06T01:48:58;17.75;;;14.15;;
4466;SDS011;2246;42.664;23.278;2022-07-06T01:51:24;15.50;;;13.15;;
4466;SDS011;2246;42.664;23.278;2022-07-06T01:53:50;16.40;;;12.10;;
4466;SDS011;2246;42.664;23.278;2022-07-06T01:56:17;14.55;;;12.32;;
4466;SDS011;2246;42.664;23.278;2022-07-06T01:58:44;17.15;;;12.05;;
4466;SDS011;2246;42.664;23.278;2022-07-06T02:01:11;15.55;;;12.82;;
4466;SDS011;2246;42.664;23.278;2022-07-06T02:03:37;13.67;;;11.90;;
4466;SDS011;2246;42.664;23.278;2022-07-06T02:06:04;17.98;;;12.15;;
4466;SDS011;2246;42.664;23.278;2022-07-06T02:08:30;16.77;;;11.30;;
4466;SDS011;2246;42.664;23.278;2022-07-06T02:10:57;17.75;;;11.73;;
4466;SDS011;2246;42.664;23.278;2022-07-06T02:13:23;18.73;;;11.88;;
4466;SDS011;2246;42.664;23.278;2022-07-06T02:15:49;19.77;;;12.40;;
4466;SDS011;2246;42.664;23.278;2022-07-06T02:18:15;17.42;;;12.45;;
4466;SDS011;2246;42.664;23.278;2022-07-06T02:20:41;16.40;;;12.63;;
4466;SDS011;2246;42.664;23.278;2022-07-06T02:23:08;16.10;;;12.23;;
4466;SDS011;2246;42.664;23.278;2022-07-06T02:25:34;21.30;;;13.48;;
4466;SDS011;2246;42.664;23.278;2022-07-06T02:28:00;19.52;;;13.82;;
4466;SDS011;2246;42.664;23.278;2022-07-06T02:30:26;18.90;;;13.25;;
4466;SDS011;2246;42.664;23.278;2022-07-06T02:32:52;16.45;;;12.50;;
4466;SDS011;2246;42.664;23.278;2022-07-06T02:35:18;17.50;;;12.70;;
4466;SDS011;2246;42.664;23.278;2022-07-06T02:37:44;15.07;;;13.00;;
4466;SDS011;2246;42.664;23.278;2022-07-06T02:40:11;19.70;;;13.27;;
4466;SDS011;2246;42.664;23.278;2022-07-06T02:42:37;20.75;;;13.15;;
4466;SDS011;2246;42.664;23.278;2022-07-06T02:45:03;21.00;;;13.32;;
4466;SDS011;2246;42.664;23.278;2022-07-06T02:47:29;17.95;;;13.05;;
4466;SDS011;2246;42.664;23.278;2022-07-06T02:49:55;19.08;;;11.90;;
4466;SDS011;2246;42.664;23.278;2022-07-06T02:52:22;21.98;;;13.75;;
4466;SDS011;2246;42.664;23.278;2022-07-06T02:54:48;16.35;;;13.32;;
4466;SDS011;2246;42.664;23.278;2022-07-06T02:57:14;17.95;;;13.57;;
4466;SDS011;2246;42.664;23.278;2022-07-06T02:59:41;20.02;;;11.88;;
4466;SDS011;2246;42.664;23.278;2022-07-06T03:02:07;17.85;;;12.38;;
4466;SDS011;2246;42.664;23.278;2022-07-06T03:04:33;14.45;;;12.18;;
4466;SDS011;2246;42.664;23.278;2022-07-06T03:07:00;16.40;;;12.27;;
4466;SDS011;2246;42.664;23.278;2022-07-06T03:09:26;15.10;;;11.32;;
4466;SDS011;2246;42.664;23.278;2022-07-06T03:11:52;14.57;;;11.05;;
4466;SDS011;2246;42.664;23.278;2022-07-06T03:14:18;15.80;;;11.05;;
4466;SDS011;2246;42.664;23.278;2022-07-06T03:16:44;18.85;;;11.30;;
4466;SDS011;2246;42.664;23.278;2022-07-06T03:19:11;15.05;;;11.20;;
4466;SDS011;2246;42.664;23.278;2022-07-06T03:21:37;16.85;;;11.10;;
4466;SDS011;2246;42.664;23.278;2022-07-06T03:24:03;14.60;;;11.15;;
4466;SDS011;2246;42.664;23.278;2022-07-06T03:26:29;16.33;;;10.38;;
4466;SDS011;2246;42.664;23.278;2022-07-06T03:28:55;12.23;;;9.18;;
4466;SDS011;2246;42.664;23.278;2022-07-06T03:31:21;11.68;;;8.65;;
4466;SDS011;2246;42.664;23.278;2022-07-06T03:33:47;12.15;;;8.65;;
4466;SDS011;2246;42.664;23.278;2022-07-06T03:36:13;12.40;;;8.88;;
4466;SDS011;2246;42.664;23.278;2022-07-06T03:38:40;12.23;;;8.82;;
4466;SDS011;2246;42.664;23.278;2022-07-06T03:41:06;13.18;;;9.05;;
4466;SDS011;2246;42.664;23.278;2022-07-06T03:43:32;11.90;;;8.30;;
4466;SDS011;2246;42.664;23.278;2022-07-06T03:45:59;15.13;;;8.95;;
4466;SDS011;2246;42.664;23.278;2022-07-06T03:48:25;14.02;;;8.68;;
4466;SDS011;2246;42.664;23.278;2022-07-06T03:50:51;12.60;;;7.53;;
4466;SDS011;2246;42.664;23.278;2022-07-06T03:53:17;12.88;;;7.30;;
4466;SDS011;2246;42.664;23.278;2022-07-06T03:55:43;12.27;;;8.30;;
4466;SDS011;2246;42.664;23.278;2022-07-06T03:58:29;11.90;;;7.55;;
4466;SDS011;2246;42.664;23.278;2022-07-06T04:00:56;7.72;;;6.35;;
4466;SDS011;2246;42.664;23.278;2022-07-06T04:03:22;15.90;;;7.60;;
4466;SDS011;2246;42.664;23.278;2022-07-06T04:05:48;16.88;;;7.97;;
4466;SDS011;2246;42.664;23.278;2022-07-06T04:08:14;13.60;;;6.80;;
4466;SDS011;2246;42.664;23.278;2022-07-06T04:10:40;12.40;;;7.10;;
4466;SDS011;2246;42.664;23.278;2022-07-06T04:13:06;10.57;;;6.50;;
4466;SDS011;2246;42.664;23.278;2022-07-06T04:15:32;11.30;;;6.30;;
4466;SDS011;2246;42.664;23.278;2022-07-06T04:17:58;14.23;;;6.38;;
4466;SDS011;2246;42.664;23.278;2022-07-06T04:20:24;12.00;;;6.80;;
4466;SDS011;2246;42.664;23.278;2022-07-06T04:22:51;16.65;;;6.50;;
4466;SDS011;2246;42.664;23.278;2022-07-06T04:25:17;10.07;;;5.97;;
4466;SDS011;2246;42.664;23.278;2022-07-06T04:27:43;10.02;;;5.90;;
4466;SDS011;2246;42.664;23.278;2022-07-06T04:30:10;13.85;;;6.50;;
4466;SDS011;2246;42.664;23.278;2022-07-06T04:32:36;12.55;;;6.25;;
4466;SDS011;2246;42.664;23.278;2022-07-06T04:35:03;9.82;;;6.10;;
4466;SDS011;2246;42.664;23.278;2022-07-06T04:37:29;14.93;;;5.97;;
4466;SDS011;2246;42.664;23.278;2022-07-06T04:39:55;9.55;;;6.07;;
4466;SDS011;2246;42.664;23.278;2022-07-06T04:42:21;9.10;;;5.80;;
4466;SDS011;2246;42.664;23.278;2022-07-06T04:44:47;9.93;;;5.68;;
4466;SDS011;2246;42.664;23.278;2022-07-06T04:47:14;8.48;;;6.53;;
4466;SDS011;2246;42.664;23.278;2022-07-06T04:49:40;11.47;;;6.33;;
4466;SDS011;2246;42.664;23.278;2022-07-06T04:52:06;11.13;;;7.03;;
4466;SDS011;2246;42.664;23.278;2022-07-06T04:54:33;12.20;;;6.93;;
4466;SDS011;2246;42.664;23.278;2022-07-06T04:56:59;16.95;;;8.90;;
4466;SDS011;2246;42.664;23.278;2022-07-06T04:59:25;13.48;;;9.10;;
4466;SDS011;2246;42.664;23.278;2022-07-06T05:01:51;14.05;;;9.77;;
4466;SDS011;2246;42.664;23.278;2022-07-06T05:04:17;12.63;;;9.10;;
4466;SDS011;2246;42.664;23.278;2022-07-06T05:06:44;17.73;;;9.88;;
4466;SDS011;2246;42.664;23.278;2022-07-06T05:09:10;15.52;;;10.07;;
4466;SDS011;2246;42.664;23.278;2022-07-06T05:11:37;15.63;;;9.88;;
4466;SDS011;2246;42.664;23.278;2022-07-06T05:14:03;25.88;;;10.82;;
4466;SDS011;2246;42.664;23.278;2022-07-06T05:16:29;15.45;;;10.55;;
4466;SDS011;2246;42.664;23.278;2022-07-06T05:18:55;14.55;;;11.38;;
4466;SDS011;2246;42.664;23.278;2022-07-06T05:21:21;17.48;;;10.13;;
4466;SDS011;2246;42.664;23.278;2022-07-06T05:23:47;14.85;;;9.57;;
4466;SDS011;2246;42.664;23.278;2022-07-06T05:26:13;15.82;;;9.85;;
4466;SDS011;2246;42.664;23.278;2022-07-06T05:28:40;12.88;;;8.82;;
4466;SDS011;2246;42.664;23.278;2022-07-06T05:31:06;15.85;;;9.63;;
4466;SDS011;2246;42.664;23.278;2022-07-06T05:33:32;14.70;;;8.98;;
4466;SDS011;2246;42.664;23.278;2022-07-06T05:35:58;11.43;;;7.97;;
4466;SDS011;2246;42.664;23.278;2022-07-06T05:38:24;13.85;;;8.00;;
4466;SDS011;2246;42.664;23.278;2022-07-06T05:40:50;10.43;;;7.90;;
4466;SDS011;2246;42.664;23.278;2022-07-06T05:43:17;13.80;;;7.63;;
4466;SDS011;2246;42.664;23.278;2022-07-06T05:45:43;13.90;;;8.93;;
4466;SDS011;2246;42.664;23.278;2022-07-06T05:48:09;18.30;;;11.80;;
4466;SDS011;2246;42.664;23.278;2022-07-06T05:50:54;13.20;;;8.73;;
4466;SDS011;2246;42.664;23.278;2022-07-06T05:53:20;15.73;;;8.25;;
4466;SDS011;2246;42.664;23.278;2022-07-06T05:55:46;17.67;;;10.43;;
4466;SDS011;2246;42.664;23.278;2022-07-06T05:58:12;13.80;;;8.15;;
4466;SDS011;2246;42.664;23.278;2022-07-06T06:00:39;17.88;;;9.32;;
4466;SDS011;2246;42.664;23.278;2022-07-06T06:03:05;15.77;;;8.10;;
4466;SDS011;2246;42.664;23.278;2022-07-06T06:05:31;11.38;;;7.22;;
4466;SDS011;2246;42.664;23.278;2022-07-06T06:07:57;12.30;;;7.97;;
4466;SDS011;2246;42.664;23.278;2022-07-06T06:10:23;12.20;;;8.40;;
4466;SDS011;2246;42.664;23.278;2022-07-06T06:12:50;13.32;;;8.05;;
4466;SDS011;2246;42.664;23.278;2022-07-06T06:15:16;14.73;;;9.05;;
4466;SDS011;2246;42.664;23.278;2022-07-06T06:17:43;18.58;;;9.05;;
4466;SDS011;2246;42.664;23.278;2022-07-06T06:20:10;13.20;;;7.85;;
4466;SDS011;2246;42.664;23.278;2022-07-06T06:25:12;11.57;;;8.35;;
4466;SDS011;2246;42.664;23.278;2022-07-06T06:27:38;11.02;;;7.93;;
4466;SDS011;2246;42.664;23.278;2022-07-06T06:30:04;12.35;;;7.97;;
4466;SDS011;2246;42.664;23.278;2022-07-06T06:32:30;13.15;;;8.80;;
4466;SDS011;2246;42.664;23.278;2022-07-06T06:34:56;15.07;;;8.68;;
4466;SDS011;2246;42.664;23.278;2022-07-06T06:37:22;12.75;;;9.10;;
4466;SDS011;2246;42.664;23.278;2022-07-06T06:39:48;12.10;;;9.27;;
4466;SDS011;2246;42.664;23.278;2022-07-06T06:42:14;21.45;;;9.35;;
4466;SDS011;2246;42.664;23.278;2022-07-06T06:44:41;18.17;;;11.35;;
4466;SDS011;2246;42.664;23.278;2022-07-06T06:47:07;17.58;;;11.52;;
4466;SDS011;2246;42.664;23.278;2022-07-06T06:49:33;19.80;;;10.13;;
4466;SDS011;2246;42.664;23.278;2022-07-06T06:51:59;19.17;;;10.30;;
4466;SDS011;2246;42.664;23.278;2022-07-06T06:54:25;22.35;;;10.55;;
4466;SDS011;2246;42.664;23.278;2022-07-06T06:56:51;14.75;;;9.63;;
4466;SDS011;2246;42.664;23.278;2022-07-06T06:59:17;20.70;;;10.65;;
4466;SDS011;2246;42.664;23.278;2022-07-06T07:01:43;20.67;;;11.05;;
4466;SDS011;2246;42.664;23.278;2022-07-06T07:04:09;15.88;;;9.82;;
4466;SDS011;2246;42.664;23.278;2022-07-06T07:06:36;18.80;;;11.05;;
4466;SDS011;2246;42.664;23.278;2022-07-06T07:09:02;13.27;;;11.02;;
4466;SDS011;2246;42.664;23.278;2022-07-06T07:11:30;16.17;;;11.48;;
4466;SDS011;2246;42.664;23.278;2022-07-06T07:13:56;15.52;;;11.60;;
4466;SDS011;2246;42.664;23.278;2022-07-06T07:16:22;18.00;;;11.88;;
4466;SDS011;2246;42.664;23.278;2022-07-06T07:18:49;20.65;;;12.65;;
4466;SDS011;2246;42.664;23.278;2022-07-06T07:21:15;18.05;;;12.25;;
4466;SDS011;2246;42.664;23.278;2022-07-06T07:23:41;20.58;;;12.23;;
4466;SDS011;2246;42.664;23.278;2022-07-06T07:26:08;16.52;;;12.43;;
4466;SDS011;2246;42.664;23.278;2022-07-06T07:28:34;20.95;;;11.80;;
4466;SDS011;2246;42.664;23.278;2022-07-06T07:31:00;15.73;;;11.77;;
4466;SDS011;2246;42.664;23.278;2022-07-06T07:33:26;16.23;;;11.32;;
4466;SDS011;2246;42.664;23.278;2022-07-06T07:35:52;17.90;;;12.15;;
4466;SDS011;2246;42.664;23.278;2022-07-06T07:38:18;14.25;;;10.68;;
4466;SDS011;2246;42.664;23.278;2022-07-06T07:40:44;17.98;;;11.68;;
4466;SDS011;2246;42.664;23.278;2022-07-06T07:43:10;15.27;;;12.27;;
4466;SDS011;2246;42.664;23.278;2022-07-06T07:45:36;19.85;;;11.43;;
4466;SDS011;2246;42.664;23.278;2022-07-06T07:48:03;18.40;;;12.20;;
4466;SDS011;2246;42.664;23.278;2022-07-06T07:50:29;16.55;;;11.60;;
4466;SDS011;2246;42.664;23.278;2022-07-06T07:52:55;14.57;;;11.35;;
4466;SDS011;2246;42.664;23.278;2022-07-06T07:55:21;15.02;;;11.50;;
4466;SDS011;2246;42.664;23.278;2022-07-06T07:57:47;12.90;;;10.63;;
4466;SDS011;2246;42.664;23.278;2022-07-06T08:00:14;14.40;;;11.30;;
4466;SDS011;2246;42.664;23.278;2022-07-06T08:02:40;16.52;;;11.18;;
4466;SDS011;2246;42.664;23.278;2022-07-06T08:05:06;12.77;;;10.23;;
4466;SDS011;2246;42.664;23.278;2022-07-06T08:07:32;17.95;;;11.00;;
4466;SDS011;2246;42.664;23.278;2022-07-06T08:09:58;14.65;;;11.77;;
4466;SDS011;2246;42.664;23.278;2022-07-06T08:12:24;13.23;;;10.52;;
4466;SDS011;2246;42.664;23.278;2022-07-06T08:14:51;15.48;;;11.38;;
4466;SDS011;2246;42.664;23.278;2022-07-06T08:17:17;15.25;;;10.82;;
4466;SDS011;2246;42.664;23.278;2022-07-06T08:19:43;18.00;;;11.13;;
4466;SDS011;2246;42.664;23.278;2022-07-06T08:22:09;13.80;;;10.82;;
4466;SDS011;2246;42.664;23.278;2022-07-06T08:24:35;15.13;;;10.45;;
4466;SDS011;2246;42.664;23.278;2022-07-06T08:27:01;20.20;;;11.52;;
4466;SDS011;2246;42.664;23.278;2022-07-06T08:29:28;16.13;;;10.93;;
4466;SDS011;2246;42.664;23.278;2022-07-06T08:31:54;13.93;;;10.60;;
4466;SDS011;2246;42.664;23.278;2022-07-06T08:34:21;14.32;;;11.50;;
4466;SDS011;2246;42.664;23.278;2022-07-06T08:36:47;14.50;;;11.65;;
4466;SDS011;2246;42.664;23.278;2022-07-06T08:39:13;19.08;;;10.75;;
4466;SDS011;2246;42.664;23.278;2022-07-06T08:41:40;16.23;;;11.68;;
4466;SDS011;2246;42.664;23.278;2022-07-06T08:44:07;16.50;;;12.20;;
4466;SDS011;2246;42.664;23.278;2022-07-06T08:46:35;16.00;;;11.93;;
4466;SDS011;2246;42.664;23.278;2022-07-06T08:49:03;16.63;;;13.40;;
4466;SDS011;2246;42.664;23.278;2022-07-06T08:51:30;20.10;;;13.47;;
4466;SDS011;2246;42.664;23.278;2022-07-06T08:53:56;19.33;;;12.27;;
4466;SDS011;2246;42.664;23.278;2022-07-06T08:56:22;15.23;;;12.30;;
4466;SDS011;2246;42.664;23.278;2022-07-06T08:58:48;13.25;;;11.82;;
4466;SDS011;2246;42.664;23.278;2022-07-06T09:01:15;20.25;;;12.27;;
4466;SDS011;2246;42.664;23.278;2022-07-06T09:03:43;16.90;;;11.50;;
4466;SDS011;2246;42.664;23.278;2022-07-06T09:06:11;13.05;;;10.40;;
4466;SDS011;2246;42.664;23.278;2022-07-06T09:08:40;14.05;;;11.07;;
4466;SDS011;2246;42.664;23.278;2022-07-06T09:11:06;14.23;;;11.50;;
4466;SDS011;2246;42.664;23.278;2022-07-06T09:13:32;15.73;;;11.43;;
4466;SDS011;2246;42.664;23.278;2022-07-06T09:16:08;15.30;;;11.75;;
4466;SDS011;2246;42.664;23.278;2022-07-06T09:18:36;17.73;;;12.13;;
4466;SDS011;2246;42.664;23.278;2022-07-06T09:21:03;11.95;;;10.52;;
4466;SDS011;2246;42.664;23.278;2022-07-06T09:23:29;12.73;;;10.43;;
4466;SDS011;2246;42.664;23.278;2022-07-06T09:25:55;18.20;;;11.02;;
4466;SDS011;2246;42.664;23.278;2022-07-06T09:28:21;14.85;;;11.15;;
4466;SDS011;2246;42.664;23.278;2022-07-06T09:30:47;13.75;;;10.98;;
4466;SDS011;2246;42.664;23.278;2022-07-06T09:33:16;16.50;;;10.70;;
4466;SDS011;2246;42.664;23.278;2022-07-06T09:35:43;16.20;;;10.73;;
4466;SDS011;2246;42.664;23.278;2022-07-06T09:38:13;14.93;;;11.32;;
4466;SDS011;2246;42.664;23.278;2022-07-06T09:40:41;14.20;;;11.43;;
4466;SDS011;2246;42.664;23.278;2022-07-06T09:43:08;15.68;;;12.32;;
4466;SDS011;2246;42.664;23.278;2022-07-06T09:45:35;16.67;;;12.23;;
4466;SDS011;2246;42.664;23.278;2022-07-06T09:48:05;17.17;;;12.55;;
4466;SDS011;2246;42.664;23.278;2022-07-06T09:50:38;16.15;;;12.40;;
4466;SDS011;2246;42.664;23.278;2022-07-06T09:53:04;14.60;;;12.20;;
4466;SDS011;2246;42.664;23.278;2022-07-06T09:55:31;16.20;;;12.75;;
4466;SDS011;2246;42.664;23.278;2022-07-06T09:57:57;16.65;;;13.32;;
4466;SDS011;2246;42.664;23.278;2022-07-06T10:00:23;16.73;;;11.88;;
4466;SDS011;2246;42.664;23.278;2022-07-06T10:02:49;18.70;;;12.70;;
4466;SDS011;2246;42.664;23.278;2022-07-06T10:05:16;18.77;;;12.95;;
4466;SDS011;2246;42.664;23.278;2022-07-06T10:07:45;15.82;;;13.15;;
4466;SDS011;2246;42.664;23.278;2022-07-06T10:10:11;12.57;;;11.20;;
4466;SDS011;2246;42.664;23.278;2022-07-06T10:12:37;15.88;;;12.52;;
4466;SDS011;2246;42.664;23.278;2022-07-06T10:15:05;16.75;;;12.75;;
4466;SDS011;2246;42.664;23.278;2022-07-06T10:17:31;16.30;;;13.00;;
4466;SDS011;2246;42.664;23.278;2022-07-06T10:19:57;19.42;;;12.85;;
4466;SDS011;2246;42.664;23.278;2022-07-06T10:22:24;16.20;;;12.23;;
4466;SDS011;2246;42.664;23.278;2022-07-06T10:24:50;15.15;;;12.65;;
4466;SDS011;2246;42.664;23.278;2022-07-06T10:27:17;19.67;;;13.02;;
4466;SDS011;2246;42.664;23.278;2022-07-06T10:29:43;16.92;;;12.85;;
4466;SDS011;2246;42.664;23.278;2022-07-06T10:32:09;15.43;;;12.95;;
4466;SDS011;2246;42.664;23.278;2022-07-06T10:34:35;14.27;;;12.77;;
4466;SDS011;2246;42.664;23.278;2022-07-06T10:37:03;17.27;;;13.30;;
4466;SDS011;2246;42.664;23.278;2022-07-06T10:39:38;15.02;;;12.48;;
4466;SDS011;2246;42.664;23.278;2022-07-06T10:42:39;17.33;;;12.95;;
4466;SDS011;2246;42.664;23.278;2022-07-06T10:45:10;16.95;;;10.52;;
4466;SDS011;2246;42.664;23.278;2022-07-06T10:47:36;17.60;;;12.50;;
4466;SDS011;2246;42.664;23.278;2022-07-06T10:50:03;26.67;;;12.48;;
4466;SDS011;2246;42.664;23.278;2022-07-06T10:58:15;20.77;;;13.07;;
4466;SDS011;2246;42.664;23.278;2022-07-06T11:00:59;16.80;;;13.45;;
4466;SDS011;2246;42.664;23.278;2022-07-06T11:06:18;14.52;;;12.82;;
4466;SDS011;2246;42.664;23.278;2022-07-06T11:09:01;14.48;;;12.95;;
4466;SDS011;2246;42.664;23.278;2022-07-06T11:16:32;17.77;;;13.85;;
4466;SDS011;2246;42.664;23.278;2022-07-06T11:21:35;20.55;;;15.25;;
4466;SDS011;2246;42.664;23.278;2022-07-06T11:24:01;15.75;;;13.43;;
4466;SDS011;2246;42.664;23.278;2022-07-06T11:26:27;19.65;;;14.02;;
4466;SDS011;2246;42.664;23.278;2022-07-06T11:28:54;15.88;;;12.70;;
4466;SDS011;2246;42.664;23.278;2022-07-06T11:31:20;16.27;;;13.15;;
4466;SDS011;2246;42.664;23.278;2022-07-06T11:33:46;15.95;;;13.45;;
4466;SDS011;2246;42.664;23.278;2022-07-06T11:36:17;16.80;;;14.63;;
4466;SDS011;2246;42.664;23.278;2022-07-06T11:38:43;17.60;;;12.20;;
4466;SDS011;2246;42.664;23.278;2022-07-06T11:41:09;17.60;;;12.88;;
4466;SDS011;2246;42.664;23.278;2022-07-06T11:43:37;16.08;;;13.38;;
4466;SDS011;2246;42.664;23.278;2022-07-06T11:46:10;13.15;;;11.57;;
4466;SDS011;2246;42.664;23.278;2022-07-06T11:48:49;15.00;;;11.32;;
4466;SDS011;2246;42.664;23.278;2022-07-06T11:51:15;12.90;;;11.00;;
4466;SDS011;2246;42.664;23.278;2022-07-06T11:53:42;14.95;;;12.65;;
4466;SDS011;2246;42.664;23.278;2022-07-06T11:58:35;13.30;;;11.65;;
4466;SDS011;2246;42.664;23.278;2022-07-06T12:03:31;16.08;;;12.25;;
4466;SDS011;2246;42.664;23.278;2022-07-06T12:05:58;15.85;;;13.25;;
4466;SDS011;2246;42.664;23.278;2022-07-06T12:08:24;16.13;;;12.70;;
4466;SDS011;2246;42.664;23.278;2022-07-06T12:10:50;14.88;;;13.27;;
4466;SDS011;2246;42.664;23.278;2022-07-06T12:13:17;15.80;;;13.32;;
4466;SDS011;2246;42.664;23.278;2022-07-06T12:15:43;17.80;;;13.13;;
4466;SDS011;2246;42.664;23.278;2022-07-06T12:18:10;18.50;;;12.40;;
4466;SDS011;2246;42.664;23.278;2022-07-06T12:20:36;12.37;;;10.73;;
4466;SDS011;2246;42.664;23.278;2022-07-06T12:23:06;13.27;;;10.93;;
4466;SDS011;2246;42.664;23.278;2022-07-06T12:25:36;12.32;;;11.07;;
4466;SDS011;2246;42.664;23.278;2022-07-06T12:28:02;13.73;;;9.10;;
4466;SDS011;2246;42.664;23.278;2022-07-06T12:30:29;14.57;;;9.13;;
4466;SDS011;2246;42.664;23.278;2022-07-06T12:33:12;17.17;;;9.93;;
4466;SDS011;2246;42.664;23.278;2022-07-06T12:35:39;12.05;;;8.48;;
4466;SDS011;2246;42.664;23.278;2022-07-06T12:38:05;9.23;;;8.30;;
4466;SDS011;2246;42.664;23.278;2022-07-06T12:40:31;9.25;;;8.25;;
4466;SDS011;2246;42.664;23.278;2022-07-06T12:42:57;11.93;;;8.13;;
4466;SDS011;2246;42.664;23.278;2022-07-06T12:45:27;10.40;;;8.00;;
4466;SDS011;2246;42.664;23.278;2022-07-06T12:48:03;12.05;;;8.73;;
4466;SDS011;2246;42.664;23.278;2022-07-06T12:50:31;11.85;;;8.68;;
4466;SDS011;2246;42.664;23.278;2022-07-06T12:53:00;9.85;;;7.60;;
4466;SDS011;2246;42.664;23.278;2022-07-06T12:55:30;9.70;;;7.65;;
4466;SDS011;2246;42.664;23.278;2022-07-06T12:57:56;10.07;;;7.65;;
4466;SDS011;2246;42.664;23.278;2022-07-06T13:00:23;8.07;;;6.88;;
4466;SDS011;2246;42.664;23.278;2022-07-06T13:02:49;10.25;;;7.38;;
4466;SDS011;2246;42.664;23.278;2022-07-06T13:05:22;9.32;;;7.38;;
4466;SDS011;2246;42.664;23.278;2022-07-06T13:07:55;6.90;;;5.90;;
4466;SDS011;2246;42.664;23.278;2022-07-06T13:10:22;9.85;;;6.80;;
4466;SDS011;2246;42.664;23.278;2022-07-06T13:12:50;6.63;;;5.67;;
4466;SDS011;2246;42.664;23.278;2022-07-06T13:15:16;8.93;;;5.15;;
4466;SDS011;2246;42.664;23.278;2022-07-06T13:17:42;7.75;;;5.57;;
4466;SDS011;2246;42.664;23.278;2022-07-06T13:20:12;6.38;;;5.10;;
4466;SDS011;2246;42.664;23.278;2022-07-06T13:22:38;8.48;;;5.07;;
4466;SDS011;2246;42.664;23.278;2022-07-06T13:25:05;5.85;;;4.75;;
4466;SDS011;2246;42.664;23.278;2022-07-06T13:27:31;5.38;;;4.30;;
4466;SDS011;2246;42.664;23.278;2022-07-06T13:29:57;7.20;;;4.22;;
4466;SDS011;2246;42.664;23.278;2022-07-06T13:32:23;7.28;;;4.20;;
4466;SDS011;2246;42.664;23.278;2022-07-06T13:34:49;5.25;;;4.13;;
4466;SDS011;2246;42.664;23.278;2022-07-06T13:37:15;5.45;;;3.88;;
4466;SDS011;2246;42.664;23.278;2022-07-06T13:39:41;6.32;;;4.80;;
4466;SDS011;2246;42.664;23.278;2022-07-06T13:42:07;7.72;;;3.85;;
4466;SDS011;2246;42.664;23.278;2022-07-06T13:44:34;9.07;;;3.55;;
4466;SDS011;2246;42.664;23.278;2022-07-06T13:47:00;4.68;;;3.30;;
4466;SDS011;2246;42.664;23.278;2022-07-06T13:49:26;7.68;;;3.10;;
4466;SDS011;2246;42.664;23.278;2022-07-06T13:51:52;3.15;;;2.85;;
4466;SDS011;2246;42.664;23.278;2022-07-06T13:56:45;4.53;;;2.58;;
4466;SDS011;2246;42.664;23.278;2022-07-06T13:59:11;4.03;;;2.47;;
4466;SDS011;2246;42.664;23.278;2022-07-06T14:01:38;3.70;;;2.40;;
4466;SDS011;2246;42.664;23.278;2022-07-06T14:04:04;5.40;;;2.83;;
4466;SDS011;2246;42.664;23.278;2022-07-06T14:06:30;7.22;;;2.70;;
4466;SDS011;2246;42.664;23.278;2022-07-06T14:08:56;5.32;;;2.20;;
4466;SDS011;2246;42.664;23.278;2022-07-06T14:11:22;6.70;;;2.95;;
4466;SDS011;2246;42.664;23.278;2022-07-06T14:13:48;4.50;;;2.22;;
4466;SDS011;2246;42.664;23.278;2022-07-06T14:16:14;3.45;;;2.45;;
4466;SDS011;2246;42.664;23.278;2022-07-06T14:18:40;3.05;;;2.30;;
4466;SDS011;2246;42.664;23.278;2022-07-06T14:21:08;4.55;;;2.13;;
4466;SDS011;2246;42.664;23.278;2022-07-06T14:23:34;5.85;;;2.22;;
4466;SDS011;2246;42.664;23.278;2022-07-06T14:26:00;8.02;;;3.00;;
4466;SDS011;2246;42.664;23.278;2022-07-06T14:28:27;3.13;;;2.30;;
4466;SDS011;2246;42.664;23.278;2022-07-06T14:30:53;2.77;;;2.13;;
4466;SDS011;2246;42.664;23.278;2022-07-06T14:33:19;3.60;;;2.28;;
4466;SDS011;2246;42.664;23.278;2022-07-06T14:35:46;5.88;;;2.50;;
4466;SDS011;2246;42.664;23.278;2022-07-06T14:38:13;2.67;;;2.03;;
4466;SDS011;2246;42.664;23.278;2022-07-06T14:40:40;3.45;;;2.53;;
4466;SDS011;2246;42.664;23.278;2022-07-06T14:43:06;3.20;;;2.40;;
4466;SDS011;2246;42.664;23.278;2022-07-06T14:45:32;4.28;;;2.00;;
4466;SDS011;2246;42.664;23.278;2022-07-06T14:47:58;2.47;;;2.10;;
4466;SDS011;2246;42.664;23.278;2022-07-06T14:50:24;4.03;;;2.08;;
4466;SDS011;2246;42.664;23.278;2022-07-06T14:52:51;2.30;;;2.10;;
4466;SDS011;2246;42.664;23.278;2022-07-06T14:55:17;2.93;;;1.93;;
4466;SDS011;2246;42.664;23.278;2022-07-06T14:57:44;2.53;;;2.05;;
4466;SDS011;2246;42.664;23.278;2022-07-06T15:00:10;20.58;;;10.70;;
4466;SDS011;2246;42.664;23.278;2022-07-06T15:02:37;5.05;;;3.25;;
4466;SDS011;2246;42.664;23.278;2022-07-06T15:05:03;4.32;;;1.98;;
4466;SDS011;2246;42.664;23.278;2022-07-06T15:07:29;2.20;;;2.00;;